Parc Calderonas, Puerto Rico
Current Conditions -  °F | °C
As of 5:04 AM on Thursday 23 Oct 2014 (Local Time) from TJNR Reporting Station
Light Rain Light Rain  
Wind Chill: 76°   Ceiling: 2400
Heat Index: 76°   Visibility: 10mi
Dew Point: 73°   Wind: 3mph
Humidity: 91%   Direction: 280°W
Pressure: 29.94"   Gusts: NA
Location:  18.2667°N, 65.6476°W
Report Text: TJNR 230904Z AUTO 28003KT 10SM -RA SCT019 BKN024 BKN080 24/23 A2994 RMK AO2 RAB03 P0000 T02440228
Loading
Personal Weather Stations






























Interactive Weather Map
Tropical Storm Tracking
New forecast layout! Learn more

10-Day Weather Forecast

Advertisements
Track Severe Weather on mobile